Time;durP1;ratioP1;P1;durP2;ratioP2;P2;SDS_P1;SDS_P2;PMS_P1;PMS_P2;Temp;Humidity;BMP_temperature;BMP_pressure;BME280_temperature;BME280_humidity;BME280_pressure;Samples;Min_cycle;Max_cycle;Signal;HPM_P1;HPM_P2
2023/07/27 00:02:07;;;;;;;8.50;7.80;;;18.20;99.90;;;;;;4992136;28;20259;-64
2023/07/27 00:04:34;;;;;;;8.60;7.80;;;18.20;99.90;;;;;;4991133;28;20577;-60
2023/07/27 00:06:59;;;;;;;8.57;7.77;;;18.20;99.90;;;;;;4974895;28;20215;-64
2023/07/27 00:09:26;;;;;;;8.23;7.40;;;18.20;99.90;;;;;;4991070;28;20837;-64
2023/07/27 00:11:51;;;;;;;8.60;7.87;;;18.20;99.90;;;;;;4991367;28;20270;-64
2023/07/27 00:14:20;;;;;;;9.00;8.30;;;18.20;99.90;;;;;;4992907;28;20538;-64
2023/07/27 00:16:45;;;;;;;9.00;7.60;;;18.30;99.90;;;;;;4992182;28;20577;-63
2023/07/27 00:19:11;;;;;;;8.13;7.53;;;18.30;99.90;;;;;;4992590;28;20411;-63
2023/07/27 00:21:37;;;;;;;8.33;7.63;;;18.20;99.90;;;;;;4991118;28;20203;-60
2023/07/27 00:24:03;;;;;;;8.17;7.53;;;18.20;99.90;;;;;;4991718;28;20182;-63
2023/07/27 00:26:28;;;;;;;9.20;8.20;;;18.20;99.90;;;;;;4992711;28;20171;-64
2023/07/27 00:28:54;;;;;;;8.73;7.83;;;18.30;99.90;;;;;;4993395;28;20504;-64
2023/07/27 00:31:20;;;;;;;7.90;7.30;;;18.30;99.90;;;;;;4996882;28;20176;-64
2023/07/27 00:33:48;;;;;;;8.40;7.80;;;18.30;99.90;;;;;;4996061;28;20539;-64
2023/07/27 00:36:14;;;;;;;8.03;7.33;;;18.30;99.90;;;;;;4996720;28;20634;-64
2023/07/27 00:38:39;;;;;;;8.17;7.50;;;18.30;99.90;;;;;;4994892;28;20518;-63
2023/07/27 00:41:05;;;;;;;8.93;8.13;;;18.30;99.90;;;;;;4996099;28;20191;-63
2023/07/27 00:43:31;;;;;;;7.10;6.50;;;18.30;99.90;;;;;;4988180;28;20172;-64
2023/07/27 00:45:57;;;;;;;7.83;7.30;;;18.30;99.90;;;;;;4976468;28;20407;-63
2023/07/27 00:48:23;;;;;;;8.27;7.50;;;18.30;99.90;;;;;;4990694;28;20219;-63
2023/07/27 00:50:51;;;;;;;7.53;6.83;;;18.30;99.90;;;;;;4995217;28;20248;-63
2023/07/27 00:53:17;;;;;;;7.93;7.23;;;18.20;99.90;;;;;;4996524;28;20626;-63
2023/07/27 00:55:43;;;;;;;8.27;7.70;;;18.30;99.90;;;;;;4995643;28;20411;-64
2023/07/27 00:58:11;;;;;;;7.67;7.17;;;18.30;99.90;;;;;;4996482;28;20501;-64
2023/07/27 01:00:38;;;;;;;8.17;7.47;;;18.30;99.90;;;;;;4996150;28;20454;-60
2023/07/27 01:03:04;;;;;;;9.60;8.67;;;18.30;99.90;;;;;;4995787;28;20433;-64
2023/07/27 01:05:30;;;;;;;8.83;8.03;;;18.40;99.90;;;;;;4994993;28;20415;-62
2023/07/27 01:07:56;;;;;;;8.33;7.63;;;18.30;99.90;;;;;;4993658;28;20665;-64
2023/07/27 01:10:32;;;;;;;8.60;7.90;;;18.30;99.90;;;;;;4994999;28;20887;-64
2023/07/27 01:13:06;;;;;;;8.83;8.13;;;18.30;99.90;;;;;;4995398;28;20175;-64
2023/07/27 01:15:42;;;;;;;8.00;7.30;;;18.30;99.90;;;;;;4994933;28;20896;-64
2023/07/27 01:18:15;;;;;;;8.23;7.63;;;18.30;99.90;;;;;;4995839;28;20418;-63
2023/07/27 01:20:49;;;;;;;9.50;8.70;;;18.30;99.90;;;;;;4992620;28;20965;-60
2023/07/27 01:23:41;;;;;;;8.93;8.20;;;18.30;99.90;;;;;;4994416;28;20433;-63
2023/07/27 01:26:26;;;;;;;9.10;8.30;;;18.40;99.90;;;;;;4990976;28;20423;-64
2023/07/27 01:28:59;;;;;;;8.70;8.10;;;18.30;99.90;;;;;;4995098;28;20407;-63
2023/07/27 01:31:43;;;;;;;9.30;8.57;;;18.30;99.90;;;;;;4995930;28;20395;-64
2023/07/27 01:34:35;;;;;;;8.90;8.20;;;18.30;99.90;;;;;;4994608;28;20539;-63
2023/07/27 01:37:09;;;;;;;8.57;7.97;;;18.30;99.90;;;;;;4990343;28;20435;-63
2023/07/27 01:39:41;;;;;;;8.93;8.13;;;18.30;99.90;;;;;;4994226;28;20833;-63
2023/07/27 01:42:11;;;;;;;9.03;8.33;;;18.40;99.90;;;;;;4995452;28;20387;-63
2023/07/27 01:44:38;;;;;;;9.07;8.23;;;18.40;99.90;;;;;;4995444;28;20419;-62
2023/07/27 01:47:04;;;;;;;9.97;8.80;;;18.50;99.90;;;;;;4978862;28;20458;-64
2023/07/27 01:49:32;;;;;;;9.70;8.80;;;18.40;99.90;;;;;;4994838;28;20945;-63
2023/07/27 01:51:58;;;;;;;9.63;8.80;;;18.50;99.90;;;;;;4994612;28;20403;-64
2023/07/27 01:54:26;;;;;;;9.77;9.00;;;18.50;99.90;;;;;;4995640;28;20422;-64
2023/07/27 01:56:54;;;;;;;9.57;8.87;;;18.60;99.90;;;;;;4993757;28;20766;-64
2023/07/27 01:59:21;;;;;;;10.17;9.37;;;18.60;99.90;;;;;;4994804;28;20434;-64
2023/07/27 02:01:49;;;;;;;8.57;8.03;;;18.60;99.90;;;;;;4993275;28;20411;-63
2023/07/27 02:04:15;;;;;;;7.93;7.43;;;18.60;99.90;;;;;;4994665;28;20805;-64
2023/07/27 02:06:41;;;;;;;7.10;6.60;;;18.60;99.90;;;;;;4994918;28;20462;-60
2023/07/27 02:09:07;;;;;;;8.47;7.63;;;18.60;99.90;;;;;;4992160;28;20434;-64
2023/07/27 02:11:33;;;;;;;8.27;7.50;;;18.60;99.90;;;;;;4995072;28;20794;-63
2023/07/27 02:14:05;;;;;;;7.70;7.10;;;18.70;99.90;;;;;;4993482;28;20480;-63
2023/07/27 02:16:42;;;;;;;7.07;6.47;;;18.70;99.90;;;;;;4993892;28;20455;-64
2023/07/27 02:19:10;;;;;;;8.00;6.77;;;18.70;99.90;;;;;;4994423;28;20399;-64
2023/07/27 02:21:37;;;;;;;7.10;6.60;;;18.70;99.90;;;;;;4992726;28;20416;-64
2023/07/27 02:24:04;;;;;;;7.20;6.70;;;18.70;99.90;;;;;;4993439;28;21009;-63
2023/07/27 02:26:31;;;;;;;8.30;5.73;;;18.70;99.90;;;;;;4994739;28;20407;-63
2023/07/27 02:28:57;;;;;;;6.33;5.90;;;18.80;99.90;;;;;;4993922;28;20920;-63
2023/07/27 02:31:24;;;;;;;6.30;5.87;;;18.80;99.90;;;;;;4994680;28;20490;-64
2023/07/27 02:33:50;;;;;;;6.30;5.70;;;18.80;99.90;;;;;;4993235;28;20427;-64
2023/07/27 02:36:16;;;;;;;6.43;5.83;;;18.90;99.90;;;;;;4994487;28;20453;-64
2023/07/27 02:38:42;;;;;;;5.53;5.17;;;18.90;99.90;;;;;;4993649;28;20953;-60
2023/07/27 02:41:12;;;;;;;7.83;5.60;;;19.00;99.90;;;;;;4993689;28;20179;-64
2023/07/27 02:43:38;;;;;;;5.30;5.00;;;19.00;99.90;;;;;;4994354;28;20688;-64
2023/07/27 02:46:05;;;;;;;5.40;5.10;;;19.00;99.90;;;;;;4993279;28;20569;-63
2023/07/27 02:48:31;;;;;;;4.93;4.70;;;19.00;99.90;;;;;;4993133;28;20470;-64
2023/07/27 02:50:56;;;;;;;5.30;5.00;;;19.00;99.90;;;;;;4992823;28;20418;-63
2023/07/27 02:53:22;;;;;;;5.80;5.40;;;19.00;99.90;;;;;;4994088;28;20179;-63
2023/07/27 02:55:57;;;;;;;5.80;5.23;;;19.10;99.90;;;;;;4993526;28;20183;-63
2023/07/27 02:58:23;;;;;;;5.97;5.67;;;19.10;99.90;;;;;;4994166;28;20198;-64
2023/07/27 03:01:08;;;;;;;6.03;5.63;;;19.10;99.90;;;;;;4992939;28;20915;-63
2023/07/27 03:03:34;;;;;;;5.90;5.50;;;19.10;99.90;;;;;;4994138;28;20171;-64
2023/07/27 03:06:01;;;;;;;5.37;5.07;;;19.20;99.90;;;;;;4993186;28;20699;-64
2023/07/27 03:08:28;;;;;;;5.90;5.40;;;19.20;99.90;;;;;;4992082;28;20235;-64
2023/07/27 03:10:54;;;;;;;5.80;5.40;;;19.20;99.90;;;;;;4993167;28;20417;-63
2023/07/27 03:13:20;;;;;;;5.50;5.20;;;19.20;99.90;;;;;;4993182;28;20415;-64
2023/07/27 03:15:46;;;;;;;6.57;5.97;;;19.20;99.90;;;;;;4993339;28;20414;-60
2023/07/27 03:18:12;;;;;;;6.20;5.60;;;19.10;99.90;;;;;;4992975;28;20459;-63
2023/07/27 03:20:40;;;;;;;6.00;5.60;;;19.20;99.90;;;;;;4985664;28;20450;-63
2023/07/27 03:23:06;;;;;;;6.60;6.00;;;19.10;99.90;;;;;;4973499;28;20172;-64
2023/07/27 03:25:36;;;;;;;6.13;5.63;;;19.10;99.90;;;;;;4974226;28;20498;-64
2023/07/27 03:28:03;;;;;;;6.20;5.80;;;19.00;99.90;;;;;;4983676;28;20454;-64
2023/07/27 03:30:29;;;;;;;5.87;5.50;;;19.00;99.90;;;;;;4992977;28;20485;-64
2023/07/27 03:32:55;;;;;;;7.27;6.70;;;19.00;99.90;;;;;;4992487;28;20406;-63
2023/07/27 03:35:21;;;;;;;5.87;5.47;;;19.00;99.90;;;;;;4993158;28;20273;-63
2023/07/27 03:37:47;;;;;;;6.00;5.40;;;18.90;99.90;;;;;;4991134;28;20458;-61
2023/07/27 03:40:12;;;;;;;9.20;8.70;;;18.90;99.90;;;;;;4992256;28;20419;-63
2023/07/27 03:42:38;;;;;;;8.60;7.90;;;18.90;99.90;;;;;;4992481;28;20180;-63
2023/07/27 03:45:04;;;;;;;6.30;5.80;;;18.80;99.90;;;;;;4992286;28;20175;-63
2023/07/27 03:47:30;;;;;;;8.00;7.50;;;18.80;99.90;;;;;;4993261;28;20215;-63
2023/07/27 03:49:55;;;;;;;5.50;5.10;;;18.70;99.90;;;;;;4991187;28;20944;-63
2023/07/27 03:52:21;;;;;;;8.00;7.40;;;18.70;99.90;;;;;;4992679;28;20171;-63
2023/07/27 03:54:47;;;;;;;6.27;5.83;;;18.70;99.90;;;;;;4992536;28;20175;-60
2023/07/27 03:57:13;;;;;;;5.43;4.93;;;18.60;99.90;;;;;;4992640;28;20175;-63
2023/07/27 03:59:38;;;;;;;5.67;5.27;;;18.60;99.90;;;;;;4993093;28;20183;-63
2023/07/27 04:02:04;;;;;;;6.50;6.10;;;18.60;99.90;;;;;;4991686;28;20176;-63
2023/07/27 04:04:30;;;;;;;5.97;5.40;;;18.60;99.90;;;;;;4991764;28;20179;-64
2023/07/27 04:06:56;;;;;;;6.73;6.30;;;18.50;99.90;;;;;;4992233;28;20206;-63
2023/07/27 04:09:22;;;;;;;6.43;5.93;;;18.50;99.90;;;;;;4990399;28;20259;-63
2023/07/27 04:11:48;;;;;;;5.77;5.43;;;18.50;99.90;;;;;;4991680;28;20525;-61
2023/07/27 04:14:13;;;;;;;7.07;6.67;;;18.40;99.90;;;;;;4990302;28;20250;-63
2023/07/27 04:16:40;;;;;;;5.90;5.50;;;18.40;99.90;;;;;;4992632;28;20202;-63
2023/07/27 04:19:06;;;;;;;7.40;6.90;;;18.40;99.90;;;;;;4991332;28;20946;-64
2023/07/27 04:21:32;;;;;;;5.77;5.27;;;18.40;99.90;;;;;;4990803;28;20274;-63
2023/07/27 04:23:57;;;;;;;6.90;6.30;;;18.30;99.90;;;;;;4990910;28;20230;-60
2023/07/27 04:26:23;;;;;;;7.00;6.40;;;18.40;99.90;;;;;;4991798;28;20195;-60
2023/07/27 04:28:49;;;;;;;6.80;6.30;;;18.40;99.90;;;;;;4991726;28;20230;-60
2023/07/27 04:31:15;;;;;;;7.90;7.37;;;18.40;99.90;;;;;;4991580;28;20541;-63
2023/07/27 04:33:40;;;;;;;6.83;6.33;;;18.40;99.90;;;;;;4990988;28;20183;-62
2023/07/27 04:36:06;;;;;;;6.03;5.63;;;18.40;99.90;;;;;;4990807;28;20223;-63
2023/07/27 04:38:32;;;;;;;5.60;5.10;;;18.40;99.90;;;;;;4986050;28;20638;-64
2023/07/27 04:40:58;;;;;;;6.50;6.00;;;18.40;99.90;;;;;;4991072;28;20542;-63
2023/07/27 04:43:24;;;;;;;8.53;7.57;;;18.40;99.90;;;;;;4991837;28;20546;-64
2023/07/27 04:45:50;;;;;;;6.50;6.00;;;18.30;99.90;;;;;;4991274;28;20434;-61
2023/07/27 04:48:15;;;;;;;9.90;9.40;;;18.30;99.90;;;;;;4991263;28;20714;-64
2023/07/27 04:50:41;;;;;;;9.87;6.23;;;18.40;99.90;;;;;;4991617;28;20623;-63
2023/07/27 04:53:07;;;;;;;7.13;6.63;;;18.30;99.90;;;;;;4991460;28;20172;-64
2023/07/27 04:55:32;;;;;;;7.37;6.77;;;18.30;99.90;;;;;;4990993;28;20274;-64
2023/07/27 04:57:59;;;;;;;8.60;7.90;;;18.30;99.90;;;;;;4989230;28;20640;-64
2023/07/27 05:00:24;;;;;;;6.47;5.97;;;18.20;99.90;;;;;;4988620;28;20184;-63
2023/07/27 05:02:50;;;;;;;9.37;8.77;;;18.10;99.90;;;;;;4991216;28;20437;-60
2023/07/27 05:05:16;;;;;;;8.00;7.30;;;18.10;99.90;;;;;;4989853;28;20676;-64
2023/07/27 05:07:42;;;;;;;6.30;5.80;;;18.10;99.90;;;;;;4991307;28;20736;-64
2023/07/27 05:10:08;;;;;;;6.50;6.00;;;18.10;99.90;;;;;;4991685;28;20204;-64
2023/07/27 05:12:33;;;;;;;7.87;7.37;;;18.10;99.90;;;;;;4991461;28;20191;-64
2023/07/27 05:14:59;;;;;;;6.90;6.40;;;18.00;99.90;;;;;;4991805;28;20563;-63
2023/07/27 05:17:25;;;;;;;6.90;6.37;;;18.10;99.90;;;;;;4991820;28;20609;-63
2023/07/27 05:19:53;;;;;;;8.20;7.70;;;18.10;99.90;;;;;;4994566;28;20434;-64
2023/07/27 05:22:19;;;;;;;7.60;6.90;;;18.10;99.90;;;;;;4994547;28;20176;-63
2023/07/27 05:24:45;;;;;;;9.83;9.17;;;18.10;99.90;;;;;;4995909;28;20473;-64
2023/07/27 05:27:10;;;;;;;6.90;6.30;;;17.90;99.90;;;;;;4993103;28;20239;-63
2023/07/27 05:29:36;;;;;;;9.20;8.40;;;17.90;99.90;;;;;;4994478;28;20210;-64
2023/07/27 05:32:02;;;;;;;10.40;9.70;;;17.90;99.90;;;;;;4986968;28;20218;-64
2023/07/27 05:34:30;;;;;;;8.20;7.57;;;17.90;99.90;;;;;;4994372;28;20184;-63
2023/07/27 05:36:56;;;;;;;11.20;10.50;;;17.80;99.90;;;;;;4992119;28;20450;-61
2023/07/27 05:39:24;;;;;;;7.60;7.00;;;17.70;99.90;;;;;;4977525;28;20436;-64
2023/07/27 05:41:50;;;;;;;7.47;6.87;;;17.60;99.90;;;;;;4987275;28;20434;-63
2023/07/27 05:44:15;;;;;;;7.70;7.10;;;17.50;99.90;;;;;;4993819;28;20732;-64
2023/07/27 05:46:44;;;;;;;7.73;7.13;;;17.50;99.90;;;;;;4995502;28;20612;-64
2023/07/27 05:49:09;;;;;;;8.30;7.60;;;17.50;99.90;;;;;;4993519;28;20438;-64
2023/07/27 05:51:35;;;;;;;7.80;7.27;;;17.40;99.90;;;;;;4993834;28;20195;-63
2023/07/27 05:54:02;;;;;;;6.53;6.13;;;17.30;99.90;;;;;;4994661;28;20628;-63
2023/07/27 05:56:27;;;;;;;8.07;7.57;;;17.30;99.90;;;;;;4994068;28;20190;-64
2023/07/27 05:58:53;;;;;;;7.07;6.30;;;17.30;99.90;;;;;;4993767;28;20419;-64
2023/07/27 06:01:19;;;;;;;6.80;6.20;;;17.30;99.90;;;;;;4993765;28;20208;-64
2023/07/27 06:03:44;;;;;;;7.23;6.73;;;17.20;99.90;;;;;;4993754;28;20246;-64
2023/07/27 06:06:10;;;;;;;7.13;6.53;;;17.20;99.90;;;;;;4993087;28;20199;-64
2023/07/27 06:08:36;;;;;;;6.03;5.43;;;17.20;99.90;;;;;;4995122;28;20613;-64
2023/07/27 06:11:08;;;;;;;7.30;5.50;;;17.20;99.90;;;;;;4992202;28;20259;-63
2023/07/27 06:13:34;;;;;;;4.97;4.47;;;17.00;99.90;;;;;;4993919;28;20536;-64
2023/07/27 06:16:00;;;;;;;5.70;5.40;;;17.00;99.90;;;;;;4989704;28;20439;-62
2023/07/27 06:18:26;;;;;;;9.33;8.47;;;16.80;99.90;;;;;;4990442;28;20449;-69
2023/07/27 06:20:52;;;;;;;6.07;5.57;;;16.80;99.90;;;;;;4991542;28;20495;-63
2023/07/27 06:23:18;;;;;;;5.47;5.07;;;16.80;99.90;;;;;;4989761;28;20738;-62
2023/07/27 06:25:45;;;;;;;5.20;4.77;;;16.90;99.90;;;;;;4991787;28;20407;-62
2023/07/27 06:28:11;;;;;;;6.13;5.53;;;17.00;99.90;;;;;;4987499;28;20463;-63
2023/07/27 06:30:39;;;;;;;5.27;4.83;;;17.10;99.90;;;;;;4993350;28;20517;-62
2023/07/27 06:33:05;;;;;;;4.73;4.43;;;17.10;99.90;;;;;;4993870;28;20399;-61
2023/07/27 06:35:32;;;;;;;4.80;4.33;;;17.20;99.90;;;;;;4976074;28;20814;-63
2023/07/27 06:37:58;;;;;;;5.00;4.60;;;17.20;99.90;;;;;;4993120;28;20434;-60
2023/07/27 06:40:25;;;;;;;5.87;5.47;;;17.10;99.90;;;;;;4993797;28;20942;-60
2023/07/27 06:42:51;;;;;;;8.23;7.83;;;17.10;99.90;;;;;;4991646;28;20453;-60
2023/07/27 06:45:17;;;;;;;4.70;4.30;;;17.20;99.90;;;;;;4991965;28;20438;-62
2023/07/27 06:47:42;;;;;;;8.10;7.40;;;17.30;99.90;;;;;;4992442;28;20489;-61
2023/07/27 06:50:09;;;;;;;4.43;4.23;;;17.10;99.90;;;;;;4992485;28;20195;-61
2023/07/27 06:52:36;;;;;;;6.87;6.57;;;17.10;99.90;;;;;;4993529;28;20471;-61
2023/07/27 06:55:01;;;;;;;7.40;6.70;;;17.10;99.90;;;;;;4991686;28;20442;-60
2023/07/27 06:57:27;;;;;;;6.10;5.80;;;17.10;99.90;;;;;;4993700;28;20671;-62
2023/07/27 06:59:53;;;;;;;4.80;4.60;;;17.20;99.90;;;;;;4991428;28;20199;-63
2023/07/27 07:02:19;;;;;;;4.67;4.23;;;17.20;99.90;;;;;;4989742;28;20207;-63
2023/07/27 07:04:45;;;;;;;4.20;4.00;;;17.20;99.90;;;;;;4992817;28;20184;-62
2023/07/27 07:07:11;;;;;;;8.93;8.20;;;17.30;99.90;;;;;;4986896;28;20801;-63
2023/07/27 07:09:38;;;;;;;4.10;3.80;;;17.50;99.90;;;;;;4992233;28;20188;-63
2023/07/27 07:12:05;;;;;;;5.70;5.50;;;17.60;99.90;;;;;;4991340;28;20830;-62
2023/07/27 07:14:31;;;;;;;3.90;3.70;;;17.60;99.90;;;;;;4992917;28;20427;-63
2023/07/27 07:17:00;;;;;;;4.63;4.43;;;17.80;99.90;;;;;;4990878;28;20946;-66
2023/07/27 07:19:26;;;;;;;4.67;4.47;;;17.90;99.90;;;;;;4991897;28;20527;-63
2023/07/27 07:21:52;;;;;;;3.57;3.37;;;18.00;99.90;;;;;;4993806;28;20490;-63
2023/07/27 07:24:18;;;;;;;6.33;6.03;;;18.10;99.90;;;;;;4991003;28;20187;-63
2023/07/27 07:26:45;;;;;;;5.10;4.80;;;18.20;99.90;;;;;;4992201;28;20802;-63
2023/07/27 07:29:11;;;;;;;4.80;4.60;;;18.40;99.90;;;;;;4990734;28;20427;-61
2023/07/27 07:31:37;;;;;;;6.13;5.83;;;18.60;99.90;;;;;;4989551;28;20933;-61
2023/07/27 07:34:03;;;;;;;4.70;4.40;;;18.70;99.90;;;;;;4991883;28;20419;-61
2023/07/27 07:36:29;;;;;;;5.17;4.87;;;18.70;99.90;;;;;;4990675;28;20451;-61
2023/07/27 07:38:55;;;;;;;7.20;6.90;;;18.80;99.90;;;;;;4971890;28;20546;-61
2023/07/27 07:41:22;;;;;;;5.60;5.40;;;18.90;99.90;;;;;;4990137;28;20306;-61
2023/07/27 07:43:48;;;;;;;4.10;3.90;;;19.00;99.90;;;;;;4989187;28;20431;-61
2023/07/27 07:46:14;;;;;;;4.23;3.77;;;19.00;99.90;;;;;;4991048;28;20480;-61
2023/07/27 07:48:40;;;;;;;3.83;3.63;;;19.00;99.90;;;;;;4991528;28;20953;-61
2023/07/27 07:51:13;;;;;;;4.37;4.07;;;19.10;99.90;;;;;;4989820;28;20431;-61
2023/07/27 07:53:39;;;;;;;3.50;3.40;;;19.00;99.90;;;;;;4991793;28;20155;-60
2023/07/27 07:56:12;;;;;;;5.07;4.70;;;19.00;99.90;;;;;;4989287;28;20433;-60
2023/07/27 07:58:37;;;;;;;66.67;54.47;;;19.00;99.90;;;;;;4985537;28;20424;-60
2023/07/27 08:01:03;;;;;;;86.23;76.83;;;19.10;99.90;;;;;;4990906;28;20780;-60
2023/07/27 08:03:29;;;;;;;7.03;6.50;;;19.20;99.90;;;;;;4989504;28;20211;-60
2023/07/27 08:05:55;;;;;;;5.50;5.13;;;19.30;99.90;;;;;;4990685;28;20176;-61
2023/07/27 08:08:20;;;;;;;4.87;4.53;;;19.40;99.90;;;;;;4987603;28;20241;-62
2023/07/27 08:10:47;;;;;;;4.87;4.47;;;19.40;99.90;;;;;;4984090;28;20215;-61
2023/07/27 08:13:13;;;;;;;6.40;6.00;;;19.30;99.90;;;;;;4990306;28;20566;-61
2023/07/27 08:15:39;;;;;;;3.70;3.60;;;19.40;99.90;;;;;;4987496;28;20457;-61
2023/07/27 08:18:05;;;;;;;3.80;3.70;;;19.30;99.90;;;;;;4990563;28;20480;-60
2023/07/27 08:20:30;;;;;;;5.53;5.27;;;19.10;99.90;;;;;;4986731;28;20438;-62
2023/07/27 08:22:56;;;;;;;29.33;24.30;;;19.20;99.90;;;;;;4986295;28;20181;-61
2023/07/27 08:25:22;;;;;;;9.13;8.30;;;19.30;99.90;;;;;;4981057;28;20972;-61
2023/07/27 08:27:48;;;;;;;4.63;4.43;;;19.20;99.90;;;;;;4989832;28;20207;-60
2023/07/27 08:30:14;;;;;;;3.63;3.53;;;19.30;99.90;;;;;;4987387;28;20269;-60
2023/07/27 08:32:40;;;;;;;4.10;3.90;;;19.30;99.90;;;;;;4991098;28;20454;-60
2023/07/27 08:35:06;;;;;;;2.90;2.80;;;19.30;99.90;;;;;;4990705;28;20278;-61
2023/07/27 08:37:32;;;;;;;2.60;2.50;;;19.20;99.90;;;;;;4991758;28;20415;-59
2023/07/27 08:39:58;;;;;;;7.93;7.43;;;19.20;99.90;;;;;;4992181;28;20766;-59
2023/07/27 08:42:24;;;;;;;6.57;6.17;;;19.20;99.90;;;;;;4987294;28;20426;-60
2023/07/27 08:44:50;;;;;;;2.87;2.77;;;19.10;99.90;;;;;;4973153;28;20183;-60
2023/07/27 08:47:16;;;;;;;2.30;2.20;;;19.00;99.90;;;;;;4991311;28;20207;-60
2023/07/27 08:49:44;;;;;;;3.30;3.20;;;19.00;99.90;;;;;;4990828;28;20793;-59
2023/07/27 08:52:12;;;;;;;3.20;3.10;;;18.90;99.90;;;;;;4993549;28;20442;-60
2023/07/27 08:54:38;;;;;;;4.40;4.30;;;18.90;99.90;;;;;;4996851;28;20407;-59
2023/07/27 08:57:04;;;;;;;3.30;3.20;;;18.80;99.90;;;;;;4995720;28;20445;-59
2023/07/27 08:59:30;;;;;;;3.70;3.60;;;18.80;99.90;;;;;;4995747;28;20176;-59
2023/07/27 09:01:56;;;;;;;3.20;3.10;;;18.90;99.90;;;;;;4994563;28;20418;-59
2023/07/27 09:04:22;;;;;;;3.00;2.90;;;18.80;99.90;;;;;;4995846;28;20407;-59
2023/07/27 09:06:50;;;;;;;4.37;4.27;;;18.80;99.90;;;;;;4974934;28;20180;-60
2023/07/27 09:09:28;;;;;;;4.07;3.97;;;18.80;99.90;;;;;;4980300;28;20196;-60
2023/07/27 09:11:54;;;;;;;6.80;6.40;;;18.80;99.90;;;;;;4996688;28;20737;-59
2023/07/27 09:14:21;;;;;;;8.60;8.20;;;18.80;99.90;;;;;;4993105;28;20422;-59
2023/07/27 09:16:47;;;;;;;3.80;3.60;;;18.80;99.90;;;;;;4994497;28;20180;-59
2023/07/27 09:19:17;;;;;;;4.90;4.60;;;18.80;99.90;;;;;;4994783;28;20501;-60
2023/07/27 09:21:52;;;;;;;2.90;2.80;;;18.70;99.90;;;;;;4995503;28;20529;-59
2023/07/27 09:24:18;;;;;;;5.00;4.80;;;18.70;99.90;;;;;;4993512;28;21017;-60
2023/07/27 09:26:45;;;;;;;4.13;4.03;;;18.70;99.90;;;;;;4995954;28;20411;-60
2023/07/27 09:29:12;;;;;;;3.60;3.50;;;18.70;99.90;;;;;;4994597;28;20454;-59
2023/07/27 09:31:51;;;;;;;4.27;4.17;;;18.70;99.90;;;;;;4995253;28;20517;-60
2023/07/27 09:34:18;;;;;;;4.60;4.40;;;18.70;99.90;;;;;;4995486;28;20457;-60
2023/07/27 09:36:45;;;;;;;4.40;4.30;;;18.70;99.90;;;;;;4994757;28;20978;-60
2023/07/27 09:39:13;;;;;;;4.23;4.13;;;18.70;99.90;;;;;;4994721;28;20441;-60
2023/07/27 09:41:43;;;;;;;4.10;4.00;;;18.80;99.90;;;;;;4994761;28;20531;-60
2023/07/27 09:44:19;;;;;;;4.30;4.20;;;18.70;99.90;;;;;;4995407;28;20415;-60
2023/07/27 09:46:46;;;;;;;3.40;3.30;;;18.70;99.90;;;;;;4995034;28;20918;-60
2023/07/27 09:49:13;;;;;;;3.80;3.70;;;18.70;99.90;;;;;;4993575;28;20431;-61
2023/07/27 09:51:39;;;;;;;6.47;6.07;;;18.70;99.90;;;;;;4995360;28;20403;-60
2023/07/27 09:54:05;;;;;;;5.07;4.87;;;18.70;99.90;;;;;;4994383;28;20431;-61
2023/07/27 09:56:34;;;;;;;4.40;4.20;;;18.70;99.90;;;;;;4978627;28;20443;-61
2023/07/27 09:59:00;;;;;;;9.37;8.63;;;18.70;99.90;;;;;;4983811;28;20455;-61
2023/07/27 10:01:27;;;;;;;4.60;4.40;;;18.70;99.90;;;;;;4994933;28;20737;-61
2023/07/27 10:03:58;;;;;;;3.80;3.60;;;18.80;99.90;;;;;;4994617;28;20458;-61
2023/07/27 10:06:26;;;;;;;6.70;6.40;;;18.90;99.90;;;;;;4985630;28;20423;-62
2023/07/27 10:08:53;;;;;;;6.20;6.00;;;18.90;99.90;;;;;;4991623;28;20993;-61
2023/07/27 10:11:46;;;;;;;3.50;3.30;;;18.90;99.90;;;;;;4994394;28;20462;-62
2023/07/27 10:14:19;;;;;;;6.60;6.40;;;19.10;99.90;;;;;;4990179;28;20434;-62
2023/07/27 10:17:02;;;;;;;2.63;2.63;;;19.00;99.90;;;;;;5003719;28;20854;-60
2023/07/27 10:19:56;;;;;;;5.90;5.70;;;18.90;99.90;;;;;;4992995;28;20411;-61
2023/07/27 10:22:25;;;;;;;3.47;3.37;;;18.80;99.90;;;;;;4987662;28;20431;-62
2023/07/27 10:24:51;;;;;;;3.60;3.50;;;18.90;99.90;;;;;;4993823;28;20423;-62
2023/07/27 10:27:18;;;;;;;5.17;5.07;;;18.80;99.90;;;;;;4990209;28;20470;-62
2023/07/27 10:30:10;;;;;;;4.93;4.80;;;18.90;99.90;;;;;;4994739;28;20639;-61
2023/07/27 10:32:36;;;;;;;6.97;6.47;;;18.90;99.90;;;;;;4992076;28;20441;-61
2023/07/27 10:35:09;;;;;;;10.47;9.87;;;18.90;99.90;;;;;;4992391;28;20454;-61
2023/07/27 10:37:54;;;;;;;6.40;6.30;;;19.00;99.90;;;;;;4993449;28;20477;-61
2023/07/27 10:40:25;;;;;;;3.40;3.30;;;19.00;99.90;;;;;;4992180;28;20529;-60
2023/07/27 10:42:58;;;;;;;5.57;5.37;;;18.90;99.90;;;;;;4990127;28;20427;-61
2023/07/27 10:45:25;;;;;;;4.20;4.10;;;18.80;99.90;;;;;;4992502;28;20415;-60
2023/07/27 10:47:56;;;;;;;5.13;4.83;;;18.70;99.90;;;;;;4992809;28;20454;-61
2023/07/27 10:50:22;;;;;;;17.87;15.80;;;18.80;99.90;;;;;;4990718;28;20431;-61
2023/07/27 10:52:52;;;;;;;5.00;4.70;;;19.00;99.90;;;;;;4991956;28;20978;-61
2023/07/27 10:55:20;;;;;;;4.80;4.70;;;19.20;99.90;;;;;;4992714;28;20411;-61
2023/07/27 10:57:47;;;;;;;4.67;4.47;;;19.20;99.90;;;;;;4993577;28;20445;-60
2023/07/27 11:00:13;;;;;;;2.37;2.27;;;19.10;99.90;;;;;;4992363;28;20470;-61
2023/07/27 11:02:44;;;;;;;4.43;4.33;;;19.10;99.90;;;;;;4993070;28;20447;-61
2023/07/27 11:05:12;;;;;;;2.50;2.40;;;19.20;99.90;;;;;;4993054;28;21131;-60
2023/07/27 11:07:40;;;;;;;5.90;5.70;;;19.30;99.90;;;;;;4990737;28;20454;-61
2023/07/27 11:10:11;;;;;;;6.23;5.83;;;19.40;99.90;;;;;;4993924;28;20427;-61
2023/07/27 11:12:50;;;;;;;6.40;6.00;;;19.60;99.90;;;;;;4988104;28;20423;-60
2023/07/27 11:15:24;;;;;;;6.27;5.80;;;19.80;99.90;;;;;;4989699;28;20442;-61
2023/07/27 11:17:54;;;;;;;3.27;3.17;;;19.90;99.90;;;;;;4993863;28;20746;-60
2023/07/27 11:20:25;;;;;;;6.13;5.73;;;20.00;99.90;;;;;;4990349;28;20531;-62
2023/07/27 11:22:52;;;;;;;5.60;5.40;;;20.00;99.90;;;;;;4991724;28;20493;-62
2023/07/27 11:25:19;;;;;;;4.77;4.60;;;20.00;99.90;;;;;;4993132;28;20407;-61
2023/07/27 11:27:53;;;;;;;5.00;4.80;;;19.90;99.90;;;;;;4988911;28;20458;-62
2023/07/27 11:30:21;;;;;;;5.03;4.73;;;19.90;99.90;;;;;;4988756;28;20442;-61
2023/07/27 11:33:04;;;;;;;4.90;4.70;;;19.80;99.90;;;;;;4993644;28;20443;-61
2023/07/27 11:35:30;;;;;;;5.80;5.50;;;19.90;99.90;;;;;;4992165;28;20485;-62
2023/07/27 11:37:57;;;;;;;6.10;5.80;;;19.90;99.90;;;;;;4990339;28;20427;-62
2023/07/27 11:40:23;;;;;;;5.20;5.00;;;20.00;99.90;;;;;;4990188;28;20533;-63
2023/07/27 11:42:49;;;;;;;72.70;55.83;;;19.90;99.90;;;;;;4985945;28;20992;-62
2023/07/27 11:45:15;;;;;;;141.43;126.23;;;20.00;99.90;;;;;;4988540;28;20473;-62
2023/07/27 11:47:43;;;;;;;9.27;8.40;;;19.70;99.90;;;;;;4991825;28;20495;-62
2023/07/27 11:50:11;;;;;;;14.33;13.03;;;19.70;99.90;;;;;;4993332;28;20824;-61
2023/07/27 11:52:39;;;;;;;6.70;6.30;;;19.80;99.90;;;;;;4991658;28;20179;-61
2023/07/27 11:55:08;;;;;;;6.40;6.00;;;19.90;99.90;;;;;;4992040;28;20427;-62
2023/07/27 11:57:34;;;;;;;7.90;7.50;;;20.00;99.90;;;;;;4991901;28;20432;-62
2023/07/27 12:00:12;;;;;;;6.73;6.37;;;20.10;99.90;;;;;;4993392;28;20922;-61
2023/07/27 12:02:56;;;;;;;6.00;5.70;;;20.20;99.90;;;;;;4990779;28;20187;-62
2023/07/27 12:05:22;;;;;;;6.20;5.90;;;20.20;99.90;;;;;;4988103;28;20440;-62
2023/07/27 12:07:52;;;;;;;7.63;7.23;;;20.10;99.90;;;;;;4992111;28;20602;-63
2023/07/27 12:10:20;;;;;;;7.00;6.70;;;20.00;99.90;;;;;;4989452;28;20485;-62
2023/07/27 12:13:05;;;;;;;6.90;6.50;;;20.00;99.90;;;;;;4989096;28;20422;-63
2023/07/27 12:15:31;;;;;;;7.10;6.70;;;20.20;99.90;;;;;;4969272;28;20482;-62
2023/07/27 12:17:59;;;;;;;6.17;5.87;;;20.20;99.90;;;;;;4990960;28;20793;-62
2023/07/27 12:20:26;;;;;;;7.00;6.60;;;20.00;99.90;;;;;;4991048;28;20403;-62
2023/07/27 12:22:52;;;;;;;7.37;6.97;;;19.90;99.90;;;;;;4991813;28;20430;-62
2023/07/27 12:25:18;;;;;;;6.60;6.30;;;19.90;99.90;;;;;;4989391;28;20509;-61
2023/07/27 12:27:43;;;;;;;5.87;5.67;;;20.00;99.90;;;;;;4991436;28;20537;-67
2023/07/27 12:30:11;;;;;;;5.50;5.30;;;20.10;99.90;;;;;;4991965;28;20930;-62
2023/07/27 12:32:38;;;;;;;6.10;5.70;;;20.10;99.90;;;;;;4989795;28;20194;-62
2023/07/27 12:35:05;;;;;;;5.50;5.20;;;20.20;99.90;;;;;;4989122;28;20508;-62
2023/07/27 12:37:31;;;;;;;5.73;5.53;;;20.20;99.90;;;;;;4992159;28;20415;-63
2023/07/27 12:39:57;;;;;;;5.40;5.10;;;20.30;99.90;;;;;;4990466;28;20926;-62
2023/07/27 12:42:23;;;;;;;6.20;5.80;;;20.30;99.90;;;;;;4988074;28;20481;-61
2023/07/27 12:44:49;;;;;;;72.33;56.10;;;20.30;99.90;;;;;;4989831;28;20406;-62
2023/07/27 12:47:15;;;;;;;9.03;8.00;;;20.30;99.90;;;;;;4988604;28;20554;-62
2023/07/27 12:49:41;;;;;;;5.30;5.00;;;20.30;99.90;;;;;;4990568;28;20957;-63